createdAt,value
2023-05-17T00:01:48.726Z,79.50
2023-05-17T00:04:18.438Z,79.40
2023-05-17T00:06:46.804Z,79.80
2023-05-17T00:09:15.058Z,79.70
2023-05-17T00:11:43.337Z,79.90
2023-05-17T00:14:11.640Z,80.10
2023-05-17T00:16:40.126Z,80.30
2023-05-17T00:19:09.443Z,80.00
2023-05-17T00:21:39.345Z,80.00
2023-05-17T00:24:09.195Z,80.40
2023-05-17T00:26:37.621Z,80.20
2023-05-17T00:29:06.076Z,80.20
2023-05-17T00:31:34.425Z,80.30
2023-05-17T00:34:02.675Z,80.40
2023-05-17T00:36:31.028Z,80.50
2023-05-17T00:39:00.673Z,80.50
2023-05-17T00:41:28.966Z,80.70
2023-05-17T00:43:57.301Z,80.50
2023-05-17T00:46:25.593Z,80.40
2023-05-17T00:48:54.255Z,80.20
2023-05-17T00:51:22.843Z,80.60
2023-05-17T00:53:51.316Z,81.00
2023-05-17T00:56:20.992Z,80.90
2023-05-17T00:58:49.650Z,81.00
2023-05-17T01:01:17.920Z,80.90
2023-05-17T01:03:47.145Z,80.90
2023-05-17T01:06:15.930Z,80.90
2023-05-17T01:08:44.797Z,80.90
2023-05-17T01:11:32.551Z,80.90
2023-05-17T01:14:20.401Z,81.00
2023-05-17T01:16:58.122Z,81.10
2023-05-17T01:19:56.895Z,81.00
2023-05-17T01:22:37.894Z,81.30
2023-05-17T01:25:18.801Z,81.20
2023-05-17T01:27:50.803Z,81.40
2023-05-17T01:30:21.930Z,81.30
2023-05-17T01:32:50.031Z,81.50
2023-05-17T01:35:18.345Z,81.40
2023-05-17T01:37:46.562Z,81.30
2023-05-17T01:40:15.297Z,81.70
2023-05-17T01:42:44.724Z,81.30
2023-05-17T01:45:23.379Z,81.50
2023-05-17T01:48:03.669Z,82.10
2023-05-17T01:50:34.060Z,82.00
2023-05-17T01:53:09.471Z,82.00
2023-05-17T01:55:45.038Z,82.20
2023-05-17T01:58:14.533Z,82.30
2023-05-17T02:00:47.826Z,82.20
2023-05-17T02:03:19.082Z,82.10
2023-05-17T02:05:47.366Z,82.10
2023-05-17T02:08:15.841Z,81.90
2023-05-17T02:10:44.111Z,82.00
2023-05-17T02:13:12.919Z,81.80
2023-05-17T02:15:41.261Z,82.30
2023-05-17T02:18:11.807Z,82.40
2023-05-17T02:20:40.599Z,82.40
2023-05-17T02:23:08.890Z,82.40
2023-05-17T02:25:37.211Z,82.60
2023-05-17T02:28:05.942Z,82.80
2023-05-17T02:30:34.340Z,82.50
2023-05-17T02:33:02.683Z,82.70
2023-05-17T02:35:32.385Z,82.70
2023-05-17T02:38:00.806Z,82.50
2023-05-17T02:40:29.127Z,82.70
2023-05-17T02:42:57.411Z,82.70
2023-05-17T02:45:26.203Z,82.70
2023-05-17T02:47:54.602Z,82.60
2023-05-17T02:50:22.934Z,82.50
2023-05-17T02:52:52.567Z,82.20
2023-05-17T02:55:21.617Z,82.50
2023-05-17T02:57:49.863Z,82.50
2023-05-17T03:00:19.291Z,82.60
2023-05-17T03:02:47.722Z,82.50
2023-05-17T03:05:16.306Z,82.90
2023-05-17T03:07:44.561Z,82.70
2023-05-17T03:10:14.325Z,82.60
2023-05-17T03:12:42.596Z,82.50
2023-05-17T03:15:11.954Z,82.30
2023-05-17T03:17:40.363Z,81.80
2023-05-17T03:20:09.964Z,82.10
2023-05-17T03:22:38.221Z,81.70
2023-05-17T03:25:07.447Z,82.20
2023-05-17T03:27:37.215Z,82.40
2023-05-17T03:30:06.565Z,81.80
2023-05-17T03:32:34.977Z,81.60
2023-05-17T03:35:03.305Z,81.20
2023-05-17T03:37:31.604Z,81.20
2023-05-17T03:40:02.797Z,81.60
2023-05-17T03:42:31.029Z,81.90
2023-05-17T03:45:02.236Z,82.00
2023-05-17T03:47:30.689Z,81.90
2023-05-17T03:49:59.022Z,82.70
2023-05-17T03:52:27.350Z,82.30
2023-05-17T03:54:55.599Z,82.80
2023-05-17T03:57:23.851Z,83.30
2023-05-17T03:59:52.107Z,83.40
2023-05-17T04:02:21.786Z,83.60
2023-05-17T04:04:54.135Z,84.10
2023-05-17T04:07:22.466Z,84.30
2023-05-17T04:09:50.963Z,84.70
2023-05-17T04:12:19.276Z,84.80
2023-05-17T04:14:47.522Z,84.80
2023-05-17T04:17:16.973Z,85.00
2023-05-17T04:19:46.806Z,85.20
2023-05-17T04:22:15.139Z,85.30
2023-05-17T04:24:43.437Z,85.20
2023-05-17T04:27:11.702Z,85.20
2023-05-17T04:29:40.942Z,85.30
2023-05-17T04:32:10.023Z,85.40
2023-05-17T04:34:38.295Z,85.60
2023-05-17T04:37:08.086Z,85.40
2023-05-17T04:39:36.422Z,85.40
2023-05-17T04:42:05.038Z,85.50
2023-05-17T04:44:33.329Z,85.60
2023-05-17T04:47:01.679Z,85.10
2023-05-17T04:49:30.003Z,85.40
2023-05-17T04:51:58.420Z,85.40
2023-05-17T04:54:29.550Z,85.80
2023-05-17T04:56:57.795Z,85.90
2023-05-17T04:59:26.093Z,85.70
2023-05-17T05:01:54.358Z,85.10
2023-05-17T05:04:22.640Z,85.60
2023-05-17T05:06:50.904Z,85.80
2023-05-17T05:09:19.213Z,85.70
2023-05-17T05:11:48.861Z,85.60
2023-05-17T05:14:17.143Z,85.50
2023-05-17T05:16:45.486Z,85.10
2023-05-17T05:19:13.877Z,85.20
2023-05-17T05:21:42.242Z,84.90
2023-05-17T05:24:10.554Z,85.20
2023-05-17T05:26:38.877Z,85.60
2023-05-17T05:29:08.616Z,85.20
2023-05-17T05:31:36.877Z,85.00
2023-05-17T05:34:05.486Z,84.70
2023-05-17T05:36:34.484Z,85.10
2023-05-17T05:39:03.275Z,85.40
2023-05-17T05:41:31.777Z,85.40
2023-05-17T05:44:00.179Z,85.50
2023-05-17T05:46:29.823Z,85.10
2023-05-17T05:48:58.089Z,85.00
2023-05-17T05:51:26.572Z,84.60
2023-05-17T05:53:54.911Z,84.60
2023-05-17T05:56:24.792Z,85.10
2023-05-17T05:58:53.015Z,84.30
2023-05-17T06:01:21.418Z,84.70
2023-05-17T06:03:51.085Z,84.10
2023-05-17T06:06:19.528Z,84.30
2023-05-17T06:08:48.085Z,84.00
2023-05-17T06:11:16.724Z,83.50
2023-05-17T06:13:45.046Z,83.60
2023-05-17T06:16:13.528Z,83.20
2023-05-17T06:18:41.948Z,82.90
2023-05-17T06:21:13.455Z,82.80
2023-05-17T06:23:41.721Z,82.50
2023-05-17T06:26:11.181Z,81.30
2023-05-17T06:28:39.542Z,80.40
2023-05-17T06:31:07.854Z,80.30
2023-05-17T06:33:36.196Z,78.90
2023-05-17T06:36:04.807Z,78.60
2023-05-17T06:38:34.449Z,77.90
2023-05-17T06:41:02.757Z,77.30
2023-05-17T06:43:31.006Z,76.80
2023-05-17T06:45:59.234Z,75.40
2023-05-17T06:48:28.042Z,75.60
2023-05-17T06:50:56.443Z,75.90
2023-05-17T06:53:24.722Z,75.80
2023-05-17T06:55:54.372Z,75.50
2023-05-17T06:58:22.636Z,74.90
2023-05-17T07:00:50.941Z,74.60
2023-05-17T07:03:19.347Z,75.50
2023-05-17T07:05:47.669Z,74.50
2023-05-17T07:08:16.288Z,74.10
2023-05-17T07:10:44.672Z,73.30
2023-05-17T07:13:14.299Z,74.00
2023-05-17T07:15:42.574Z,73.60
2023-05-17T07:18:10.953Z,73.20
2023-05-17T07:20:40.473Z,72.60
2023-05-17T07:23:08.826Z,72.50
2023-05-17T07:25:41.051Z,71.60
2023-05-17T07:28:09.326Z,71.30
2023-05-17T07:30:39.061Z,70.70
2023-05-17T07:33:07.454Z,70.70
2023-05-17T07:35:35.824Z,70.00
2023-05-17T07:38:04.072Z,70.10
2023-05-17T07:40:32.314Z,69.60
2023-05-17T07:43:01.171Z,68.90
2023-05-17T07:45:29.982Z,68.10
2023-05-17T07:47:59.926Z,67.80
2023-05-17T07:50:28.891Z,67.30
2023-05-17T07:52:57.217Z,67.90
2023-05-17T07:55:25.523Z,67.00
2023-05-17T07:57:53.849Z,66.70
2023-05-17T08:00:23.981Z,66.90
2023-05-17T08:02:52.362Z,65.90
2023-05-17T08:05:22.341Z,67.00
2023-05-17T08:07:50.666Z,67.10
2023-05-17T08:10:19.102Z,66.10
2023-05-17T08:12:47.490Z,67.40
2023-05-17T08:15:15.764Z,67.90
2023-05-17T08:17:44.077Z,67.10
2023-05-17T08:20:13.345Z,67.10
2023-05-17T08:22:45.780Z,66.50
2023-05-17T08:25:14.150Z,66.00
2023-05-17T08:27:42.955Z,65.70
2023-05-17T08:30:14.851Z,66.20
2023-05-17T08:32:46.517Z,66.70
2023-05-17T08:35:15.128Z,66.80
2023-05-17T08:37:44.737Z,67.00
2023-05-17T08:40:14.830Z,67.60
2023-05-17T08:42:43.920Z,67.30
2023-05-17T08:45:13.057Z,67.30
2023-05-17T08:47:43.432Z,68.40
2023-05-17T08:50:12.734Z,67.50
2023-05-17T08:52:42.816Z,66.80
2023-05-17T08:55:16.482Z,66.70
2023-05-17T08:57:47.081Z,66.10
2023-05-17T09:00:21.657Z,66.20
2023-05-17T09:02:50.539Z,65.80
2023-05-17T09:05:18.975Z,65.50
2023-05-17T09:07:48.754Z,64.30
2023-05-17T09:10:18.587Z,64.80
2023-05-17T09:12:47.278Z,64.00
2023-05-17T09:15:18.568Z,62.70
2023-05-17T09:17:54.136Z,62.00
2023-05-17T09:20:34.096Z,61.90
2023-05-17T09:23:02.911Z,62.80
2023-05-17T09:25:33.411Z,61.30
2023-05-17T09:28:03.575Z,60.90
2023-05-17T09:30:33.283Z,61.00
2023-05-17T09:33:08.000Z,59.30
2023-05-17T09:35:38.713Z,59.00
2023-05-17T09:38:09.117Z,61.70
2023-05-17T09:40:42.287Z,63.00
2023-05-17T09:43:11.644Z,62.20
2023-05-17T09:45:40.283Z,61.00
2023-05-17T09:48:16.882Z,61.70
2023-05-17T09:50:47.259Z,60.00
2023-05-17T09:53:25.931Z,61.10
2023-05-17T09:55:58.632Z,60.10
2023-05-17T09:58:28.885Z,59.00
2023-05-17T10:01:01.618Z,60.00
2023-05-17T10:03:34.345Z,59.70
2023-05-17T10:06:05.441Z,58.60
2023-05-17T10:08:34.522Z,57.60
2023-05-17T10:11:09.681Z,60.20
2023-05-17T10:13:45.668Z,60.00
2023-05-17T10:16:14.365Z,58.40
2023-05-17T10:18:43.178Z,60.00
2023-05-17T10:21:12.792Z,59.20
2023-05-17T10:23:44.177Z,59.80
2023-05-17T10:26:16.307Z,61.60
2023-05-17T10:28:46.478Z,60.90
2023-05-17T10:31:14.762Z,61.00
2023-05-17T10:33:44.841Z,57.90
2023-05-17T10:36:15.522Z,58.90
2023-05-17T10:38:43.814Z,58.20
2023-05-17T10:41:15.236Z,58.40
2023-05-17T10:43:44.586Z,57.20
2023-05-17T10:46:21.351Z,56.90
2023-05-17T10:48:52.144Z,57.80
2023-05-17T10:51:25.597Z,59.80
2023-05-17T10:54:09.296Z,57.40
2023-05-17T10:56:42.691Z,56.30
2023-05-17T10:59:23.155Z,54.90
2023-05-17T11:01:58.882Z,54.60
2023-05-17T11:04:33.886Z,55.20
2023-05-17T11:07:25.017Z,54.80
2023-05-17T11:09:55.917Z,54.90
2023-05-17T11:12:38.409Z,52.10
2023-05-17T11:15:10.646Z,53.20
2023-05-17T11:17:54.054Z,52.90
2023-05-17T11:20:35.114Z,52.60
2023-05-17T11:23:06.908Z,52.40
2023-05-17T11:25:37.039Z,51.70
2023-05-17T11:28:19.122Z,51.90
2023-05-17T11:30:51.802Z,51.20
2023-05-17T11:33:33.213Z,51.60
2023-05-17T11:36:08.166Z,52.90
2023-05-17T11:38:36.417Z,53.30
2023-05-17T11:43:54.539Z,52.70
2023-05-17T11:46:25.040Z,52.40
2023-05-17T11:48:54.620Z,51.80
2023-05-17T11:51:25.159Z,52.00
2023-05-17T11:53:56.101Z,52.00
2023-05-17T11:56:35.619Z,52.30
2023-05-17T11:59:12.557Z,52.60
2023-05-17T12:01:45.980Z,52.60
2023-05-17T12:04:14.685Z,53.60
2023-05-17T12:06:43.937Z,50.60
2023-05-17T12:09:13.490Z,50.90
2023-05-17T12:11:43.337Z,51.70
2023-05-17T12:14:17.565Z,52.50
2023-05-17T12:16:48.604Z,52.70
2023-05-17T12:19:21.278Z,53.30
2023-05-17T12:21:50.521Z,52.60
2023-05-17T12:24:19.221Z,53.70
2023-05-17T12:26:48.702Z,52.70
2023-05-17T12:29:24.048Z,52.80
2023-05-17T12:31:54.414Z,53.40
2023-05-17T12:34:23.842Z,51.80
2023-05-17T12:36:53.953Z,53.20
2023-05-17T12:39:24.280Z,52.90
2023-05-17T12:41:53.391Z,53.50
2023-05-17T12:44:23.298Z,53.50
2023-05-17T12:46:53.974Z,51.50
2023-05-17T12:49:23.183Z,52.10
2023-05-17T12:51:51.675Z,51.90
2023-05-17T12:54:28.989Z,52.00
2023-05-17T12:56:57.735Z,53.20
2023-05-17T12:59:29.216Z,53.30
2023-05-17T13:02:00.699Z,52.50
2023-05-17T13:04:33.946Z,51.90
2023-05-17T13:07:05.065Z,51.10
2023-05-17T13:09:34.593Z,50.50
2023-05-17T13:12:06.832Z,52.00
2023-05-17T13:14:38.580Z,52.00
2023-05-17T13:17:09.817Z,51.80
2023-05-17T13:19:39.069Z,51.50
2023-05-17T13:22:08.628Z,49.50
2023-05-17T13:24:39.649Z,50.40
2023-05-17T13:27:08.778Z,50.70
2023-05-17T13:29:41.699Z,49.30
2023-05-17T13:32:12.614Z,49.20
2023-05-17T13:34:41.719Z,51.10
2023-05-17T13:37:12.560Z,51.60
2023-05-17T13:39:42.078Z,50.70
2023-05-17T13:42:11.295Z,51.00
2023-05-17T13:44:41.857Z,50.40
2023-05-17T13:47:10.152Z,51.20
2023-05-17T13:49:38.422Z,50.20
2023-05-17T13:52:09.136Z,50.50
2023-05-17T13:54:38.450Z,49.50
2023-05-17T13:57:08.338Z,49.30
2023-05-17T13:59:36.751Z,49.90
2023-05-17T14:02:06.808Z,49.60
2023-05-17T14:04:35.158Z,49.50
2023-05-17T14:07:04.070Z,47.70
2023-05-17T14:09:34.331Z,49.50
2023-05-17T14:12:02.800Z,49.50
2023-05-17T14:14:32.011Z,49.70
2023-05-17T14:17:01.498Z,48.60
2023-05-17T14:19:31.776Z,48.60
2023-05-17T14:22:00.269Z,48.40
2023-05-17T14:24:28.587Z,50.10
2023-05-17T14:26:58.787Z,50.20
2023-05-17T14:29:27.190Z,48.20
2023-05-17T14:31:55.499Z,46.70
2023-05-17T14:34:23.831Z,47.60
2023-05-17T14:36:53.634Z,48.50
2023-05-17T14:39:21.895Z,47.30
2023-05-17T14:41:50.242Z,48.10
2023-05-17T14:44:18.590Z,48.90
2023-05-17T14:46:46.917Z,47.80
2023-05-17T14:49:15.395Z,48.60
2023-05-17T14:51:44.858Z,48.10
2023-05-17T14:54:14.527Z,47.70
2023-05-17T14:56:43.361Z,48.60
2023-05-17T14:59:11.626Z,48.20
2023-05-17T15:01:39.936Z,47.70
2023-05-17T15:04:09.535Z,49.10
2023-05-17T15:06:38.703Z,47.80
2023-05-17T15:09:07.873Z,49.60
2023-05-17T15:11:37.566Z,48.90
2023-05-17T15:14:06.498Z,50.00
2023-05-17T15:16:35.900Z,49.60
2023-05-17T15:19:04.394Z,49.60
2023-05-17T15:21:32.857Z,49.10
2023-05-17T15:24:01.492Z,48.80
2023-05-17T15:26:29.849Z,49.50
2023-05-17T15:28:59.541Z,47.70
2023-05-17T15:31:28.700Z,49.30
2023-05-17T15:33:57.635Z,50.10
2023-05-17T15:36:26.124Z,49.40
2023-05-17T15:38:54.463Z,49.60
2023-05-17T15:41:29.680Z,51.40
2023-05-17T15:43:59.877Z,50.40
2023-05-17T15:46:28.157Z,50.50
2023-05-17T15:48:58.010Z,50.80
2023-05-17T15:51:26.391Z,50.90
2023-05-17T15:53:54.760Z,50.70
2023-05-17T15:56:23.181Z,51.80
2023-05-17T15:58:51.888Z,52.20
2023-05-17T16:01:21.545Z,50.40
2023-05-17T16:03:49.947Z,49.40
2023-05-17T16:06:19.718Z,49.80
2023-05-17T16:08:48.080Z,50.30
2023-05-17T16:11:16.396Z,49.80
2023-05-17T16:13:44.978Z,49.90
2023-05-17T16:16:14.566Z,49.40
2023-05-17T16:18:44.360Z,48.80
2023-05-17T16:21:13.585Z,50.00
2023-05-17T16:23:42.268Z,49.20
2023-05-17T16:26:10.876Z,49.00
2023-05-17T16:28:39.429Z,49.50
2023-05-17T16:31:07.908Z,50.60
2023-05-17T16:33:36.498Z,51.40
2023-05-17T16:36:07.124Z,52.10
2023-05-17T16:38:35.476Z,51.50
2023-05-17T16:41:03.907Z,51.00
2023-05-17T16:43:32.322Z,53.00
2023-05-17T16:46:00.775Z,50.80
2023-05-17T16:48:29.186Z,49.90
2023-05-17T16:50:59.393Z,49.90
2023-05-17T16:53:29.243Z,50.90
2023-05-17T16:55:57.588Z,50.10
2023-05-17T16:58:26.013Z,50.30
2023-05-17T17:00:54.340Z,50.40
2023-05-17T17:03:22.739Z,50.60
2023-05-17T17:05:51.066Z,51.30
2023-05-17T17:08:19.297Z,51.80
2023-05-17T17:10:48.923Z,51.40
2023-05-17T17:13:18.075Z,52.40
2023-05-17T17:15:46.739Z,52.30
2023-05-17T17:18:15.091Z,52.70
2023-05-17T17:20:44.014Z,51.40
2023-05-17T17:23:12.318Z,52.50
2023-05-17T17:25:40.679Z,53.00
2023-05-17T17:28:10.356Z,52.90
2023-05-17T17:30:38.729Z,52.90
2023-05-17T17:33:07.189Z,53.50
2023-05-17T17:35:35.489Z,50.60
2023-05-17T17:38:03.761Z,51.60
2023-05-17T17:40:35.288Z,51.90
2023-05-17T17:43:03.629Z,51.80
2023-05-17T17:45:33.362Z,52.10
2023-05-17T17:48:01.711Z,52.70
2023-05-17T17:50:30.318Z,53.00
2023-05-17T17:52:58.831Z,53.30
2023-05-17T17:55:27.356Z,53.60
2023-05-17T17:57:55.642Z,53.30
2023-05-17T18:00:24.341Z,53.10
2023-05-17T18:02:54.187Z,53.00
2023-05-17T18:05:22.589Z,54.00
2023-05-17T18:07:51.018Z,54.10
2023-05-17T18:10:19.530Z,52.10
2023-05-17T18:12:50.235Z,53.80
2023-05-17T18:15:19.861Z,54.30
2023-05-17T18:17:48.842Z,54.50
2023-05-17T18:20:18.746Z,54.00
2023-05-17T18:22:47.382Z,54.30
2023-05-17T18:25:15.763Z,55.00
2023-05-17T18:27:44.047Z,54.30
2023-05-17T18:30:13.757Z,54.50
2023-05-17T18:32:42.401Z,54.50
2023-05-17T18:35:11.310Z,55.00
2023-05-17T18:37:41.069Z,53.90
2023-05-17T18:40:10.765Z,54.60
2023-05-17T18:42:39.160Z,54.90
2023-05-17T18:45:09.096Z,54.60
2023-05-17T18:47:37.481Z,55.50
2023-05-17T18:50:06.850Z,55.70
2023-05-17T18:52:35.147Z,56.30
2023-05-17T18:55:05.149Z,56.20
2023-05-17T18:57:33.472Z,57.10
2023-05-17T19:00:02.141Z,56.30
2023-05-17T19:02:30.568Z,57.00
2023-05-17T19:04:58.842Z,56.60
2023-05-17T19:07:27.146Z,57.70
2023-05-17T19:09:55.540Z,57.30
2023-05-17T19:12:25.273Z,57.80
2023-05-17T19:14:53.573Z,58.60
2023-05-17T19:17:21.897Z,57.50
2023-05-17T19:19:50.262Z,57.50
2023-05-17T19:22:18.522Z,58.00
2023-05-17T19:24:46.840Z,58.50
2023-05-17T19:27:19.470Z,58.80
2023-05-17T19:29:49.361Z,58.10
2023-05-17T19:32:17.693Z,59.10
2023-05-17T19:34:46.065Z,59.30
2023-05-17T19:37:14.383Z,59.20
2023-05-17T19:39:42.667Z,59.40
2023-05-17T19:42:11.057Z,60.60
2023-05-17T19:44:39.339Z,60.40
2023-05-17T19:47:09.156Z,60.60
2023-05-17T19:49:37.628Z,60.70
2023-05-17T19:52:08.804Z,61.50
2023-05-17T19:54:37.068Z,60.60
2023-05-17T19:57:06.107Z,61.60
2023-05-17T19:59:34.658Z,61.60
2023-05-17T20:02:02.954Z,61.50
2023-05-17T20:04:32.677Z,61.40
2023-05-17T20:07:00.961Z,61.60
2023-05-17T20:09:30.405Z,62.40
2023-05-17T20:11:58.849Z,62.80
2023-05-17T20:14:28.469Z,62.50
2023-05-17T20:16:56.827Z,63.50
2023-05-17T20:19:25.390Z,63.40
2023-05-17T20:21:55.326Z,63.60
2023-05-17T20:24:25.550Z,63.80
2023-05-17T20:26:53.844Z,64.00
2023-05-17T20:29:22.097Z,64.70
2023-05-17T20:31:50.675Z,64.50
2023-05-17T20:34:19.231Z,63.90
2023-05-17T20:36:47.651Z,63.90
2023-05-17T20:39:17.359Z,63.90
2023-05-17T20:41:47.646Z,63.90
2023-05-17T20:44:20.134Z,64.30
2023-05-17T20:46:49.090Z,64.10
2023-05-17T20:49:18.136Z,63.40
2023-05-17T20:51:46.535Z,63.00
2023-05-17T20:54:16.276Z,62.10
2023-05-17T20:56:44.662Z,61.90
2023-05-17T20:59:13.469Z,62.20
2023-05-17T21:01:41.966Z,62.60
2023-05-17T21:04:11.259Z,62.80
2023-05-17T21:06:39.554Z,63.10
2023-05-17T21:09:08.376Z,64.10
2023-05-17T21:11:38.039Z,64.30
2023-05-17T21:14:06.335Z,63.70
2023-05-17T21:16:35.492Z,63.80
2023-05-17T21:19:04.373Z,63.60
2023-05-17T21:21:32.702Z,64.90
2023-05-17T21:24:01.037Z,64.60
2023-05-17T21:26:29.355Z,64.70
2023-05-17T21:28:59.070Z,65.40
2023-05-17T21:31:28.214Z,65.00
2023-05-17T21:33:56.514Z,65.30
2023-05-17T21:36:24.948Z,66.10
2023-05-17T21:38:53.190Z,66.00
2023-05-17T21:41:21.588Z,65.50
2023-05-17T21:43:50.287Z,66.20
2023-05-17T21:46:20.008Z,66.20
2023-05-17T21:48:48.347Z,66.90
2023-05-17T21:51:16.879Z,66.90
2023-05-17T21:53:45.270Z,66.60
2023-05-17T21:56:13.544Z,67.20
2023-05-17T21:58:41.826Z,67.40
2023-05-17T22:01:10.190Z,67.20
2023-05-17T22:03:39.993Z,67.20
2023-05-17T22:06:08.612Z,67.30
2023-05-17T22:08:36.966Z,67.80
2023-05-17T22:11:05.726Z,67.90
2023-05-17T22:13:34.009Z,68.10
2023-05-17T22:16:02.394Z,68.40
2023-05-17T22:18:32.111Z,68.40
2023-05-17T22:21:02.114Z,68.30
2023-05-17T22:23:30.416Z,68.30
2023-05-17T22:26:00.434Z,68.30
2023-05-17T22:28:29.176Z,68.90
2023-05-17T22:30:57.465Z,69.00
2023-05-17T22:33:25.840Z,69.70
2023-05-17T22:35:54.094Z,69.30
2023-05-17T22:38:24.352Z,69.10
2023-05-17T22:40:52.678Z,69.70
2023-05-17T22:43:22.274Z,70.00
2023-05-17T22:45:51.179Z,69.50
2023-05-17T22:48:20.743Z,69.20
2023-05-17T22:50:49.101Z,69.60
2023-05-17T22:53:18.587Z,69.90
2023-05-17T22:55:49.080Z,69.80
2023-05-17T22:58:17.691Z,70.40
2023-05-17T23:00:46.184Z,70.00
2023-05-17T23:03:14.953Z,70.30
2023-05-17T23:05:43.325Z,70.30
2023-05-17T23:08:12.938Z,71.00
2023-05-17T23:10:41.288Z,71.10
2023-05-17T23:13:10.898Z,71.10
2023-05-17T23:15:40.927Z,71.40
2023-05-17T23:18:09.389Z,71.30
2023-05-17T23:20:37.702Z,71.60
2023-05-17T23:23:06.337Z,71.80
2023-05-17T23:25:34.609Z,72.10
2023-05-17T23:28:04.757Z,72.10
2023-05-17T23:30:38.394Z,71.80
2023-05-17T23:33:06.704Z,71.90
2023-05-17T23:35:35.165Z,71.80
2023-05-17T23:38:04.142Z,71.60
2023-05-17T23:40:32.703Z,71.80
2023-05-17T23:43:00.978Z,72.20
2023-05-17T23:45:29.891Z,72.40
2023-05-17T23:48:00.446Z,72.50
2023-05-17T23:50:28.975Z,72.70
2023-05-17T23:52:57.300Z,72.90
2023-05-17T23:55:25.549Z,72.90
2023-05-17T23:57:53.810Z,72.50
